Time;durP1;ratioP1;P1;durP2;ratioP2;P2;SDS_P1;SDS_P2;PMS_P1;PMS_P2;Temp;Humidity;BMP_temperature;BMP_pressure;BME280_temperature;BME280_humidity;BME280_pressure;Samples;Min_cycle;Max_cycle;Signal;HPM_P1;HPM_P2
2022/06/24 00:01:55;;;;;;;9.20;8.00;;;;;;;;;;5032223;28;20029;-65
2022/06/24 00:04:23;;;;;;;9.23;8.32;;;;;;;;;;5035422;28;20041;-65
2022/06/24 00:06:49;;;;;;;8.45;7.72;;;;;;;;;;5030859;28;20033;-65
2022/06/24 00:09:15;;;;;;;10.60;9.55;;;;;;;;;;5031156;28;20049;-65
2022/06/24 00:11:42;;;;;;;9.50;8.35;;;;;;;;;;5034880;28;20025;-64
2022/06/24 00:14:15;;;;;;;9.77;8.90;;;;;;;;;;5032043;28;20037;-63
2022/06/24 00:17:10;;;;;;;11.23;8.25;;;;;;;;;;5027717;28;20034;-65
2022/06/24 00:19:58;;;;;;;9.07;8.00;;;;;;;;;;5028986;28;20073;-63
2022/06/24 00:22:26;;;;;;;8.45;7.70;;;;;;;;;;5031320;28;20113;-63
2022/06/24 00:25:07;;;;;;;9.90;8.13;;;;;;;;;;5029186;28;20033;-63
2022/06/24 00:27:33;;;;;;;8.27;7.47;;;;;;;;;;5029495;28;20116;-64
2022/06/24 00:30:10;;;;;;;8.27;7.43;;;;;;;;;;5032754;28;20116;-62
2022/06/24 00:32:36;;;;;;;8.43;7.40;;;;;;;;;;5027679;28;20034;-62
2022/06/24 00:35:09;;;;;;;12.02;8.05;;;;;;;;;;5027356;28;20109;-62
2022/06/24 00:37:36;;;;;;;10.60;8.13;;;;;;;;;;5028350;28;20037;-62
2022/06/24 00:40:10;;;;;;;9.68;8.30;;;;;;;;;;5032646;28;20029;-62
2022/06/24 00:42:38;;;;;;;9.13;8.10;;;;;;;;;;5025817;28;20034;-62
2022/06/24 00:45:24;;;;;;;9.82;8.27;;;;;;;;;;5025703;28;20045;-63
2022/06/24 00:47:50;;;;;;;11.82;8.02;;;;;;;;;;5031047;28;20044;-62
2022/06/24 00:50:23;;;;;;;9.23;7.97;;;;;;;;;;5029118;28;20848;-62
2022/06/24 00:52:55;;;;;;;9.35;8.27;;;;;;;;;;5021855;28;20526;-63
2022/06/24 00:55:26;;;;;;;8.88;8.05;;;;;;;;;;5029585;28;20054;-62
2022/06/24 00:57:52;;;;;;;12.23;7.85;;;;;;;;;;5025244;28;20489;-62
2022/06/24 01:00:18;;;;;;;12.85;7.68;;;;;;;;;;5028693;28;20053;-62
2022/06/24 01:02:46;;;;;;;9.20;7.55;;;;;;;;;;5028556;28;20036;-63
2022/06/24 01:05:12;;;;;;;8.52;7.72;;;;;;;;;;5031792;28;20033;-62
2022/06/24 01:07:41;;;;;;;12.80;8.10;;;;;;;;;;5028332;28;20029;-63
2022/06/24 01:10:09;;;;;;;8.30;7.60;;;;;;;;;;5023280;28;20396;-62
2022/06/24 01:12:36;;;;;;;9.00;7.50;;;;;;;;;;5032535;28;20034;-62
2022/06/24 01:15:03;;;;;;;8.65;7.82;;;;;;;;;;5023218;28;20134;-63
2022/06/24 01:17:29;;;;;;;9.85;7.40;;;;;;;;;;5027823;28;20373;-63
2022/06/24 01:19:55;;;;;;;8.63;7.82;;;;;;;;;;5027266;28;20029;-62
2022/06/24 01:22:22;;;;;;;9.35;7.68;;;;;;;;;;5031672;28;20156;-61
2022/06/24 01:24:47;;;;;;;9.68;8.13;;;;;;;;;;5024712;28;20037;-62
2022/06/24 01:27:13;;;;;;;9.88;7.90;;;;;;;;;;5026902;28;20039;-61
2022/06/24 01:29:38;;;;;;;9.43;7.80;;;;;;;;;;5033589;28;20033;-61
2022/06/24 01:32:04;;;;;;;8.23;7.43;;;;;;;;;;5028007;28;20519;-62
2022/06/24 01:34:30;;;;;;;8.25;7.63;;;;;;;;;;5027816;28;20029;-63
2022/06/24 01:36:56;;;;;;;9.02;8.13;;;;;;;;;;5028145;28;20171;-62
2022/06/24 01:39:21;;;;;;;9.98;8.05;;;;;;;;;;5032560;28;20653;-62
2022/06/24 01:41:48;;;;;;;8.52;7.80;;;;;;;;;;5026642;28;20026;-62
2022/06/24 01:44:13;;;;;;;8.57;7.75;;;;;;;;;;5025869;28;20381;-62
2022/06/24 01:46:39;;;;;;;11.73;8.43;;;;;;;;;;5031713;28;20105;-62
2022/06/24 01:49:05;;;;;;;8.90;8.20;;;;;;;;;;5048299;22;21103;-70
2022/06/24 01:51:33;;;;;;;8.32;7.55;;;;;;;;;;5047163;28;20065;-71
2022/06/24 01:53:59;;;;;;;8.52;7.68;;;;;;;;;;5047680;28;20037;-70
2022/06/24 01:56:24;;;;;;;10.20;8.15;;;;;;;;;;5047267;28;20040;-70
2022/06/24 01:58:50;;;;;;;8.73;7.93;;;;;;;;;;5041877;28;20047;-70
2022/06/24 02:01:18;;;;;;;9.23;8.18;;;;;;;;;;5045824;28;20443;-70
2022/06/24 02:03:44;;;;;;;13.27;8.25;;;;;;;;;;5047267;28;20480;-72
2022/06/24 02:06:11;;;;;;;9.93;8.35;;;;;;;;;;5045534;28;20029;-70
2022/06/24 02:08:37;;;;;;;9.13;8.32;;;;;;;;;;5035153;28;20037;-71
2022/06/24 02:13:48;;;;;;;9.50;8.52;;;;;;;;;;5046848;28;20044;-71
2022/06/24 02:16:16;;;;;;;10.30;8.23;;;;;;;;;;5045173;28;20033;-71
2022/06/24 02:18:42;;;;;;;8.90;8.05;;;;;;;;;;5047023;28;20395;-71
2022/06/24 02:21:07;;;;;;;14.52;8.75;;;;;;;;;;5047443;28;20036;-71
2022/06/24 02:23:33;;;;;;;11.77;8.27;;;;;;;;;;5047144;28;20400;-71
2022/06/24 02:25:59;;;;;;;11.15;8.48;;;;;;;;;;5042657;28;20037;-71
2022/06/24 02:28:25;;;;;;;9.45;8.57;;;;;;;;;;5047009;28;20037;-70
2022/06/24 02:30:53;;;;;;;9.43;8.57;;;;;;;;;;5045869;28;20044;-70
2022/06/24 02:33:19;;;;;;;10.15;8.43;;;;;;;;;;5044580;28;20641;-70
2022/06/24 02:35:44;;;;;;;10.32;8.63;;;;;;;;;;5046359;28;20071;-71
2022/06/24 02:38:10;;;;;;;10.57;9.57;;;;;;;;;;5046807;28;20041;-70
2022/06/24 02:40:47;;;;;;;11.23;9.13;;;;;;;;;;5046740;28;20112;-71
2022/06/24 02:43:28;;;;;;;11.80;9.85;;;;;;;;;;5042312;28;20114;-71
2022/06/24 02:46:05;;;;;;;13.20;10.65;;;;;;;;;;5043356;28;20068;-70
2022/06/24 02:48:33;;;;;;;11.77;9.43;;;;;;;;;;5053330;28;20035;-72
2022/06/24 02:51:01;;;;;;;10.63;9.10;;;;;;;;;;5042908;28;20025;-71
2022/06/24 02:53:29;;;;;;;11.27;9.77;;;;;;;;;;5049712;28;20060;-71
2022/06/24 02:55:57;;;;;;;11.05;9.95;;;;;;;;;;5049081;28;20118;-71
2022/06/24 02:58:23;;;;;;;14.43;10.40;;;;;;;;;;5050316;28;20056;-71
2022/06/24 03:00:49;;;;;;;14.07;9.70;;;;;;;;;;5050517;28;20033;-71
2022/06/24 03:03:17;;;;;;;12.32;9.80;;;;;;;;;;5048133;28;20507;-71
2022/06/24 03:05:43;;;;;;;12.05;10.77;;;;;;;;;;5048402;28;20071;-69
2022/06/24 03:08:10;;;;;;;13.05;9.85;;;;;;;;;;5048341;28;20458;-68
2022/06/24 03:10:36;;;;;;;15.30;11.05;;;;;;;;;;5050222;28;20040;-68
2022/06/24 03:13:02;;;;;;;19.08;11.20;;;;;;;;;;5050255;28;20041;-68
2022/06/24 03:15:28;;;;;;;13.05;10.75;;;;;;;;;;5048487;28;20033;-69
2022/06/24 03:17:54;;;;;;;14.95;10.82;;;;;;;;;;5050243;28;20029;-68
2022/06/24 03:20:19;;;;;;;15.50;10.68;;;;;;;;;;5050013;28;20377;-68
2022/06/24 03:22:45;;;;;;;16.00;11.27;;;;;;;;;;5050272;28;20041;-69
2022/06/24 03:25:11;;;;;;;14.85;9.63;;;;;;;;;;5045339;28;20047;-68
2022/06/24 03:27:37;;;;;;;13.35;9.88;;;;;;;;;;5048830;28;20040;-68
2022/06/24 03:30:05;;;;;;;13.95;10.13;;;;;;;;;;5048491;28;20033;-68
2022/06/24 03:32:31;;;;;;;15.02;10.82;;;;;;;;;;5047628;28;20035;-68
2022/06/24 03:34:56;;;;;;;13.93;9.90;;;;;;;;;;5049752;28;20032;-68
2022/06/24 03:37:22;;;;;;;12.68;10.05;;;;;;;;;;5050070;28;20029;-68
2022/06/24 03:39:47;;;;;;;10.77;9.73;;;;;;;;;;5049761;28;20037;-68
2022/06/24 03:42:13;;;;;;;13.18;10.02;;;;;;;;;;5047565;28;20036;-68
2022/06/24 03:44:39;;;;;;;14.60;9.93;;;;;;;;;;5048451;28;20033;-68
2022/06/24 03:47:04;;;;;;;11.13;10.02;;;;;;;;;;5050313;28;20037;-68
2022/06/24 03:49:30;;;;;;;11.00;9.60;;;;;;;;;;5047906;28;20453;-68
2022/06/24 03:51:56;;;;;;;15.32;9.80;;;;;;;;;;5053532;28;20436;-68
2022/06/24 03:54:21;;;;;;;12.35;9.60;;;;;;;;;;5049512;28;20098;-68
2022/06/24 03:56:47;;;;;;;10.57;9.55;;;;;;;;;;5049965;28;20531;-68
2022/06/24 03:59:13;;;;;;;11.10;9.45;;;;;;;;;;5046703;28;20039;-68
2022/06/24 04:01:38;;;;;;;10.98;9.85;;;;;;;;;;5049131;28;20629;-68
2022/06/24 04:04:04;;;;;;;11.32;10.18;;;;;;;;;;5049250;28;20079;-68
2022/06/24 04:06:30;;;;;;;12.95;10.48;;;;;;;;;;5048094;28;20128;-68
2022/06/24 04:08:56;;;;;;;11.15;10.02;;;;;;;;;;5045320;28;20546;-68
2022/06/24 04:11:22;;;;;;;13.88;10.60;;;;;;;;;;5048500;28;20041;-68
2022/06/24 04:13:48;;;;;;;10.98;9.98;;;;;;;;;;5047004;28;20029;-68
2022/06/24 04:16:14;;;;;;;12.95;10.63;;;;;;;;;;5047533;28;20035;-68
2022/06/24 04:18:39;;;;;;;14.50;10.43;;;;;;;;;;5047511;28;20072;-68
2022/06/24 04:21:13;;;;;;;12.23;10.15;;;;;;;;;;5049711;28;20067;-69
2022/06/24 04:23:39;;;;;;;13.95;10.77;;;;;;;;;;5047838;28;20029;-69
2022/06/24 04:26:05;;;;;;;12.10;10.70;;;;;;;;;;5049694;28;20051;-69
2022/06/24 04:28:30;;;;;;;11.70;10.20;;;;;;;;;;5048672;28;20029;-69
2022/06/24 04:30:56;;;;;;;13.65;9.98;;;;;;;;;;5046844;28;20037;-68
2022/06/24 04:33:22;;;;;;;11.80;9.80;;;;;;;;;;5047136;28;20597;-68
2022/06/24 04:35:47;;;;;;;13.13;9.40;;;;;;;;;;5045550;28;20506;-68
2022/06/24 04:38:14;;;;;;;12.63;9.00;;;;;;;;;;5048684;28;20036;-68
2022/06/24 04:40:39;;;;;;;9.52;8.73;;;;;;;;;;5048888;28;20056;-68
2022/06/24 04:43:05;;;;;;;9.23;8.50;;;;;;;;;;5047248;28;20076;-68
2022/06/24 04:45:31;;;;;;;11.57;7.82;;;;;;;;;;5048123;28;21464;-68
2022/06/24 04:47:57;;;;;;;8.95;8.15;;;;;;;;;;5052835;28;20041;-68
2022/06/24 04:50:22;;;;;;;8.77;8.00;;;;;;;;;;5048372;28;20032;-68
2022/06/24 04:52:48;;;;;;;12.63;8.52;;;;;;;;;;5047085;28;20103;-68
2022/06/24 04:55:14;;;;;;;10.38;8.82;;;;;;;;;;5048027;28;20036;-68
2022/06/24 04:57:39;;;;;;;10.50;8.40;;;;;;;;;;5048532;28;20446;-68
2022/06/24 05:00:06;;;;;;;10.95;8.48;;;;;;;;;;5049095;28;20032;-68
2022/06/24 05:02:32;;;;;;;9.57;8.68;;;;;;;;;;5046649;28;20040;-68
2022/06/24 05:04:57;;;;;;;10.88;8.30;;;;;;;;;;5045184;28;20041;-68
2022/06/24 05:07:23;;;;;;;10.25;8.82;;;;;;;;;;5048873;28;20063;-68
2022/06/24 05:09:48;;;;;;;8.95;8.05;;;;;;;;;;5046887;28;20086;-68
2022/06/24 05:12:14;;;;;;;10.50;8.52;;;;;;;;;;5046230;28;20029;-68
2022/06/24 05:14:40;;;;;;;8.55;7.65;;;;;;;;;;5047529;28;20032;-68
2022/06/24 05:17:05;;;;;;;8.18;7.47;;;;;;;;;;5048629;28;20630;-68
2022/06/24 05:19:31;;;;;;;9.75;8.20;;;;;;;;;;5047953;28;20037;-68
2022/06/24 05:21:56;;;;;;;11.35;8.57;;;;;;;;;;5047483;28;20044;-68
2022/06/24 05:24:22;;;;;;;8.75;7.80;;;;;;;;;;5048217;28;20464;-68
2022/06/24 05:26:48;;;;;;;9.77;7.45;;;;;;;;;;5048801;28;20059;-68
2022/06/24 05:29:14;;;;;;;8.10;7.32;;;;;;;;;;5045584;28;20029;-68
2022/06/24 05:31:40;;;;;;;10.77;8.57;;;;;;;;;;5048187;28;20032;-68
2022/06/24 05:34:09;;;;;;;11.70;8.13;;;;;;;;;;5047856;28;20486;-68
2022/06/24 05:36:35;;;;;;;8.55;7.75;;;;;;;;;;5046846;28;20085;-68
2022/06/24 05:39:03;;;;;;;12.45;8.00;;;;;;;;;;5048020;28;20033;-68
2022/06/24 05:41:28;;;;;;;8.68;7.78;;;;;;;;;;5048056;28;20064;-68
2022/06/24 05:43:55;;;;;;;9.75;7.80;;;;;;;;;;5048298;28;20057;-68
2022/06/24 05:46:20;;;;;;;8.38;7.65;;;;;;;;;;5046291;28;20041;-68
2022/06/24 05:48:46;;;;;;;14.02;8.40;;;;;;;;;;5047864;28;20174;-68
2022/06/24 05:51:15;;;;;;;8.82;8.00;;;;;;;;;;5048022;28;20502;-68
2022/06/24 05:56:27;;;;;;;8.70;7.80;;;;;;;;;;5045626;28;20037;-68
2022/06/24 05:58:52;;;;;;;8.20;7.60;;;;;;;;;;5048302;28;20174;-68
2022/06/24 06:01:18;;;;;;;8.43;7.70;;;;;;;;;;5047427;28;20124;-68
2022/06/24 06:03:44;;;;;;;8.45;7.57;;;;;;;;;;5048122;28;20556;-68
2022/06/24 06:06:10;;;;;;;8.80;7.85;;;;;;;;;;5046102;28;20033;-68
2022/06/24 06:08:37;;;;;;;8.40;7.55;;;;;;;;;;5047894;28;20097;-66
2022/06/24 06:11:21;;;;;;;9.45;6.93;;;;;;;;;;5048163;28;20044;-67
2022/06/24 06:13:48;;;;;;;7.15;6.55;;;;;;;;;;5047414;28;20021;-67
2022/06/24 06:16:14;;;;;;;10.38;7.30;;;;;;;;;;5044911;28;20407;-67
2022/06/24 06:18:40;;;;;;;10.70;8.48;;;;;;;;;;5047256;28;20040;-68
2022/06/24 06:21:08;;;;;;;8.80;7.25;;;;;;;;;;5047557;28;20029;-67
2022/06/24 06:23:34;;;;;;;14.45;6.82;;;;;;;;;;5044945;28;20091;-67
2022/06/24 06:26:02;;;;;;;9.43;7.00;;;;;;;;;;5046538;28;20059;-67
2022/06/24 06:28:28;;;;;;;11.18;6.55;;;;;;;;;;5048347;28;20024;-68
2022/06/24 06:30:53;;;;;;;9.20;7.00;;;;;;;;;;5045144;28;20037;-68
2022/06/24 06:33:19;;;;;;;11.50;7.15;;;;;;;;;;5047013;28;20043;-68
2022/06/24 06:35:45;;;;;;;9.65;6.93;;;;;;;;;;5047132;28;20395;-68
2022/06/24 06:38:11;;;;;;;11.05;7.13;;;;;;;;;;5046726;28;20041;-68
2022/06/24 06:40:38;;;;;;;10.05;6.53;;;;;;;;;;5045025;28;20039;-68
2022/06/24 06:43:06;;;;;;;12.82;7.07;;;;;;;;;;5043025;28;20446;-68
2022/06/24 06:45:33;;;;;;;8.07;6.82;;;;;;;;;;5042840;28;20486;-68
2022/06/24 06:47:59;;;;;;;10.40;6.85;;;;;;;;;;5046250;28;20128;-68
2022/06/24 06:50:24;;;;;;;8.27;6.93;;;;;;;;;;5042735;28;20125;-68
2022/06/24 06:52:50;;;;;;;9.43;7.07;;;;;;;;;;5041267;28;20051;-68
2022/06/24 06:55:16;;;;;;;12.05;7.28;;;;;;;;;;5043614;28;20040;-68
2022/06/24 06:57:42;;;;;;;8.93;7.32;;;;;;;;;;5044853;28;20074;-68
2022/06/24 07:00:09;;;;;;;7.78;7.07;;;;;;;;;;5043053;28;20040;-68
2022/06/24 07:02:36;;;;;;;7.63;6.78;;;;;;;;;;5044452;28;20061;-68
2022/06/24 07:05:02;;;;;;;8.35;6.82;;;;;;;;;;5044673;28;20075;-68
2022/06/24 07:07:28;;;;;;;10.82;6.75;;;;;;;;;;5044653;28;20033;-69
2022/06/24 07:09:54;;;;;;;10.93;6.90;;;;;;;;;;5043068;28;20055;-69
2022/06/24 07:12:20;;;;;;;7.78;6.50;;;;;;;;;;5044579;28;20499;-69
2022/06/24 07:14:46;;;;;;;7.78;6.40;;;;;;;;;;5044166;28;20838;-69
2022/06/24 07:17:11;;;;;;;7.05;6.35;;;;;;;;;;5042948;28;20095;-69
2022/06/24 07:19:37;;;;;;;7.43;6.72;;;;;;;;;;5045325;28;20041;-68
2022/06/24 07:22:04;;;;;;;7.10;6.50;;;;;;;;;;5046420;28;20037;-69
2022/06/24 07:24:30;;;;;;;8.63;6.28;;;;;;;;;;5041755;28;20045;-69
2022/06/24 07:26:56;;;;;;;7.40;6.70;;;;;;;;;;5045500;28;20032;-69
2022/06/24 07:29:21;;;;;;;6.80;6.15;;;;;;;;;;5045755;28;20052;-69
2022/06/24 07:31:47;;;;;;;9.23;6.97;;;;;;;;;;5046188;28;20046;-70
2022/06/24 07:34:14;;;;;;;10.23;5.95;;;;;;;;;;5042125;28;20021;-70
2022/06/24 07:36:41;;;;;;;8.02;5.90;;;;;;;;;;5046001;28;20031;-70
2022/06/24 07:39:07;;;;;;;7.05;6.03;;;;;;;;;;5049136;28;20394;-70
2022/06/24 07:41:32;;;;;;;6.63;6.03;;;;;;;;;;5050704;28;20025;-70
2022/06/24 07:43:58;;;;;;;7.53;5.65;;;;;;;;;;5048240;28;20029;-70
2022/06/24 07:46:23;;;;;;;7.03;6.20;;;;;;;;;;5049269;28;20035;-70
2022/06/24 07:48:49;;;;;;;6.45;5.32;;;;;;;;;;5049837;28;20025;-70
2022/06/24 07:51:16;;;;;;;7.97;5.15;;;;;;;;;;5033975;22;20051;-72
2022/06/24 07:53:42;;;;;;;8.00;6.00;;;;;;;;;;5024113;28;20113;-73
2022/06/24 07:58:53;;;;;;;7.57;5.50;;;;;;;;;;5027628;28;20018;-71
2022/06/24 08:01:18;;;;;;;8.25;6.13;;;;;;;;;;5027446;28;20056;-72
2022/06/24 08:03:44;;;;;;;6.90;5.43;;;;;;;;;;5029969;28;20037;-73
2022/06/24 08:06:09;;;;;;;5.63;5.18;;;;;;;;;;5029850;28;20211;-72
2022/06/24 08:08:35;;;;;;;5.88;5.03;;;;;;;;;;5028813;28;20629;-73
2022/06/24 08:11:01;;;;;;;6.18;5.32;;;;;;;;;;5027307;28;20109;-72
2022/06/24 08:13:26;;;;;;;7.18;5.63;;;;;;;;;;5030027;28;20147;-72
2022/06/24 08:15:52;;;;;;;8.32;5.60;;;;;;;;;;5028618;28;20064;-70
2022/06/24 08:18:19;;;;;;;9.73;5.47;;;;;;;;;;5028167;28;20032;-71
2022/06/24 08:20:44;;;;;;;6.50;5.72;;;;;;;;;;5027062;28;20508;-73
2022/06/24 08:23:10;;;;;;;6.40;5.28;;;;;;;;;;5027743;28;20064;-70
2022/06/24 08:25:36;;;;;;;7.50;5.43;;;;;;;;;;5028597;28;20045;-71
2022/06/24 08:28:02;;;;;;;6.13;5.53;;;;;;;;;;5029421;28;20173;-71
2022/06/24 08:30:27;;;;;;;10.20;6.05;;;;;;;;;;5027971;28;20048;-71
2022/06/24 08:32:53;;;;;;;7.68;5.43;;;;;;;;;;5026724;28;20556;-71
2022/06/24 08:35:19;;;;;;;6.10;5.60;;;;;;;;;;5028949;28;20065;-72
2022/06/24 08:37:44;;;;;;;8.70;6.20;;;;;;;;;;5027572;28;20046;-71
2022/06/24 08:40:11;;;;;;;7.32;5.35;;;;;;;;;;5029509;28;20484;-71
2022/06/24 08:42:38;;;;;;;6.70;5.75;;;;;;;;;;5027343;28;20477;-71
2022/06/24 08:45:05;;;;;;;6.40;5.68;;;;;;;;;;5026136;28;20600;-72
2022/06/24 08:47:30;;;;;;;7.90;5.80;;;;;;;;;;5028159;28;20068;-72
2022/06/24 08:49:56;;;;;;;5.72;5.20;;;;;;;;;;5027927;28;20053;-72
2022/06/24 08:52:22;;;;;;;6.70;5.32;;;;;;;;;;5021037;28;20033;-72
2022/06/24 08:54:50;;;;;;;5.32;4.82;;;;;;;;;;5026040;28;20127;-71
2022/06/24 08:57:15;;;;;;;5.68;5.18;;;;;;;;;;5027459;28;20037;-71
2022/06/24 08:59:43;;;;;;;6.40;5.10;;;;;;;;;;5025597;28;20030;-71
2022/06/24 09:02:15;;;;;;;5.80;4.83;;;;;;;;;;5026867;28;20041;-72
2022/06/24 09:04:44;;;;;;;6.95;4.85;;;;;;;;;;5028260;28;20299;-72
2022/06/24 09:07:27;;;;;;;8.15;5.03;;;;;;;;;;5026135;28;20037;-73
2022/06/24 09:10:00;;;;;;;5.38;4.88;;;;;;;;;;5022915;28;20030;-72
2022/06/24 09:12:30;;;;;;;5.82;4.90;;;;;;;;;;5028018;28;20044;-71
2022/06/24 09:15:01;;;;;;;7.07;4.90;;;;;;;;;;5024831;28;20041;-71
2022/06/24 09:17:29;;;;;;;7.95;4.90;;;;;;;;;;5025508;28;20455;-72
2022/06/24 09:20:13;;;;;;;5.85;4.68;;;;;;;;;;5026937;28;20501;-72
2022/06/24 09:22:39;;;;;;;8.30;4.90;;;;;;;;;;5028505;28;20484;-71
2022/06/24 09:25:05;;;;;;;6.20;4.45;;;;;;;;;;5026632;28;20032;-71
2022/06/24 09:27:32;;;;;;;7.45;4.50;;;;;;;;;;5025170;28;20625;-72
2022/06/24 09:29:58;;;;;;;4.65;4.25;;;;;;;;;;5027777;28;20022;-72
2022/06/24 09:32:23;;;;;;;4.28;3.97;;;;;;;;;;5027328;28;20037;-73
2022/06/24 09:35:07;;;;;;;4.53;4.13;;;;;;;;;;5024784;28;20048;-71
2022/06/24 09:37:39;;;;;;;5.15;3.97;;;;;;;;;;5027209;28;20087;-71
2022/06/24 09:40:20;;;;;;;5.03;4.50;;;;;;;;;;5028182;28;20276;-71
2022/06/24 09:42:59;;;;;;;4.30;4.00;;;;;;;;;;5026877;28;20491;-71
2022/06/24 09:45:43;;;;;;;4.70;4.35;;;;;;;;;;5027477;28;20106;-70
2022/06/24 09:48:11;;;;;;;7.40;4.13;;;;;;;;;;5028089;28;20040;-70
2022/06/24 09:50:37;;;;;;;4.40;4.10;;;;;;;;;;5025202;28;20029;-71
2022/06/24 09:53:05;;;;;;;7.10;4.43;;;;;;;;;;5025960;28;20435;-71
2022/06/24 09:55:31;;;;;;;5.82;4.78;;;;;;;;;;5027384;28;21325;-71
2022/06/24 09:57:59;;;;;;;5.32;4.30;;;;;;;;;;5027592;28;20032;-71
2022/06/24 10:00:40;;;;;;;4.82;4.50;;;;;;;;;;5022331;28;20531;-72
2022/06/24 10:03:09;;;;;;;11.13;5.15;;;;;;;;;;5026712;28;20091;-71
2022/06/24 10:05:38;;;;;;;6.35;5.32;;;;;;;;;;5026739;28;20036;-70
2022/06/24 10:08:06;;;;;;;5.40;4.63;;;;;;;;;;5023917;28;20068;-71
2022/06/24 10:10:34;;;;;;;4.68;4.28;;;;;;;;;;5025285;28;20037;-71
2022/06/24 10:13:08;;;;;;;6.63;4.55;;;;;;;;;;5028148;28;20447;-71
2022/06/24 10:15:34;;;;;;;4.97;4.50;;;;;;;;;;5024208;28;20069;-71
2022/06/24 10:18:06;;;;;;;5.93;4.85;;;;;;;;;;5023491;28;20034;-71
2022/06/24 10:20:33;;;;;;;5.40;4.50;;;;;;;;;;5027809;28;20041;-70
2022/06/24 10:22:58;;;;;;;5.20;4.70;;;;;;;;;;5027955;28;20095;-71
2022/06/24 10:25:48;;;;;;;4.07;3.67;;;;;;;;;;5027641;28;20046;-70
2022/06/24 10:28:14;;;;;;;5.13;4.63;;;;;;;;;;5023045;28;20033;-71
2022/06/24 10:30:40;;;;;;;6.80;4.53;;;;;;;;;;5028104;28;20037;-71
2022/06/24 10:33:19;;;;;;;5.75;5.30;;;;;;;;;;5020129;28;20126;-71
2022/06/24 10:35:55;;;;;;;7.13;4.80;;;;;;;;;;5028151;28;20427;-70
2022/06/24 10:38:23;;;;;;;6.65;4.60;;;;;;;;;;5024314;28;20132;-70
2022/06/24 10:40:50;;;;;;;5.38;4.40;;;;;;;;;;5026485;28;20400;-71
2022/06/24 10:43:36;;;;;;;4.78;4.38;;;;;;;;;;5027069;28;20484;-70
2022/06/24 10:46:11;;;;;;;6.50;4.82;;;;;;;;;;5019924;28;20030;-72
2022/06/24 10:48:42;;;;;;;5.70;4.80;;;;;;;;;;5024446;28;20041;-71
2022/06/24 10:51:19;;;;;;;4.82;4.47;;;;;;;;;;5027126;28;20092;-72
2022/06/24 10:54:03;;;;;;;5.05;4.65;;;;;;;;;;5027204;28;20029;-71
2022/06/24 10:56:49;;;;;;;6.32;4.43;;;;;;;;;;5024063;28;20040;-72
2022/06/24 10:59:19;;;;;;;6.35;4.40;;;;;;;;;;5026630;28;20033;-72
2022/06/24 11:01:50;;;;;;;8.20;4.82;;;;;;;;;;5026353;28;20036;-70
2022/06/24 11:04:22;;;;;;;4.55;4.25;;;;;;;;;;5022882;28;20056;-70
2022/06/24 11:07:08;;;;;;;8.30;4.28;;;;;;;;;;5023792;28;20120;-70
2022/06/24 11:09:35;;;;;;;5.13;4.45;;;;;;;;;;5026118;28;20393;-71
2022/06/24 11:12:22;;;;;;;4.97;4.20;;;;;;;;;;5023127;28;20117;-72
2022/06/24 11:14:47;;;;;;;5.85;4.30;;;;;;;;;;5029221;28;20063;-71
2022/06/24 11:17:13;;;;;;;4.95;4.50;;;;;;;;;;5030096;28;20495;-72
2022/06/24 11:19:40;;;;;;;4.88;4.43;;;;;;;;;;5030878;28;20021;-70
2022/06/24 11:22:05;;;;;;;5.03;4.55;;;;;;;;;;5024363;28;20124;-71
2022/06/24 11:24:34;;;;;;;7.38;4.65;;;;;;;;;;5028090;28;20121;-72
2022/06/24 11:27:09;;;;;;;5.05;4.63;;;;;;;;;;5028310;28;20528;-71
2022/06/24 11:29:59;;;;;;;5.03;4.60;;;;;;;;;;5025223;28;20124;-70
2022/06/24 11:32:25;;;;;;;5.65;4.60;;;;;;;;;;5026348;28;20046;-70
2022/06/24 11:34:51;;;;;;;8.70;4.85;;;;;;;;;;5028747;28;20039;-70
2022/06/24 11:37:24;;;;;;;5.40;4.90;;;;;;;;;;5028873;28;20031;-70
2022/06/24 11:39:54;;;;;;;5.70;5.15;;;;;;;;;;5030635;28;20029;-71
2022/06/24 11:42:21;;;;;;;5.30;4.90;;;;;;;;;;5024309;28;20037;-70
2022/06/24 11:44:49;;;;;;;4.90;4.53;;;;;;;;;;5030449;28;20033;-71
2022/06/24 11:47:15;;;;;;;;;;;;;;;;;;5026993;28;20034;-70
2022/06/24 11:49:44;;;;;;;5.75;5.25;;;;;;;;;;5026962;28;19923;-72
2022/06/24 11:52:10;;;;;;;5.38;4.88;;;;;;;;;;5023421;28;20515;-70
2022/06/24 11:54:36;;;;;;;6.10;5.00;;;;;;;;;;5026663;28;20045;-71
2022/06/24 11:57:06;;;;;;;5.43;5.03;;;;;;;;;;5027073;28;20083;-71
2022/06/24 11:59:31;;;;;;;5.07;4.78;;;;;;;;;;5024959;28;20057;-71
2022/06/24 12:01:57;;;;;;;5.88;4.90;;;;;;;;;;5027834;28;20084;-71
2022/06/24 12:04:25;;;;;;;5.18;4.70;;;;;;;;;;5028773;28;20575;-72
2022/06/24 12:06:51;;;;;;;5.63;4.78;;;;;;;;;;5026384;28;20152;-71
2022/06/24 12:09:17;;;;;;;5.47;4.97;;;;;;;;;;5026417;28;20381;-71
2022/06/24 12:11:43;;;;;;;5.85;5.25;;;;;;;;;;5028443;28;20503;-69
2022/06/24 12:14:14;;;;;;;6.80;5.00;;;;;;;;;;5026390;28;20898;-73
2022/06/24 12:17:01;;;;;;;6.00;5.50;;;;;;;;;;5027346;28;20056;-73
2022/06/24 12:19:28;;;;;;;6.75;5.60;;;;;;;;;;5030350;28;20106;-72
2022/06/24 12:22:09;;;;;;;8.90;5.60;;;;;;;;;;5024724;28;20112;-70
2022/06/24 12:24:36;;;;;;;7.68;5.88;;;;;;;;;;5025622;28;20036;-73
2022/06/24 12:27:04;;;;;;;7.60;5.57;;;;;;;;;;5024935;28;20044;-73
2022/06/24 12:29:35;;;;;;;5.82;5.20;;;;;;;;;;5028475;28;20045;-73
2022/06/24 12:32:02;;;;;;;6.25;5.63;;;;;;;;;;5026470;28;20160;-72
2022/06/24 12:34:30;;;;;;;6.32;5.70;;;;;;;;;;5026121;28;20041;-72
2022/06/24 12:36:58;;;;;;;5.53;5.05;;;;;;;;;;5028306;28;20073;-72
2022/06/24 12:39:29;;;;;;;9.27;5.53;;;;;;;;;;5028313;28;20044;-71
2022/06/24 12:41:55;;;;;;;6.22;5.45;;;;;;;;;;5024026;28;20037;-71
2022/06/24 12:44:21;;;;;;;6.05;5.20;;;;;;;;;;5026471;28;20107;-71
2022/06/24 12:52:29;;;;;;;5.80;5.40;;;;;;;;;;5025813;28;20069;-71
2022/06/24 12:54:54;;;;;;;7.70;5.53;;;;;;;;;;5027663;28;20064;-71
2022/06/24 12:57:20;;;;;;;7.10;5.15;;;;;;;;;;5022330;28;20076;-71
2022/06/24 12:59:45;;;;;;;6.00;5.45;;;;;;;;;;5025411;28;20029;-71
2022/06/24 13:02:11;;;;;;;5.90;5.38;;;;;;;;;;5026944;28;20041;-73
2022/06/24 13:04:37;;;;;;;5.72;5.25;;;;;;;;;;5025610;28;20037;-72
2022/06/24 13:07:04;;;;;;;5.60;5.10;;;;;;;;;;5024616;28;20403;-71
2022/06/24 13:09:29;;;;;;;5.55;5.10;;;;;;;;;;5026728;28;20021;-73
2022/06/24 13:11:55;;;;;;;5.50;5.10;;;;;;;;;;5027014;28;20043;-72
2022/06/24 13:14:21;;;;;;;5.40;4.90;;;;;;;;;;5021078;28;20167;-71
2022/06/24 13:16:46;;;;;;;5.38;4.88;;;;;;;;;;5022916;28;20068;-72
2022/06/24 13:19:12;;;;;;;6.13;4.93;;;;;;;;;;5023654;28;20135;-72
2022/06/24 13:21:37;;;;;;;5.65;5.15;;;;;;;;;;5027020;28;20037;-72
2022/06/24 13:24:03;;;;;;;5.35;4.95;;;;;;;;;;5026041;28;20063;-71
2022/06/24 13:26:29;;;;;;;7.00;5.68;;;;;;;;;;5021796;28;20029;-71
2022/06/24 13:28:55;;;;;;;5.90;5.30;;;;;;;;;;5025755;28;20491;-71
2022/06/24 13:31:21;;;;;;;5.80;5.40;;;;;;;;;;5020845;28;20038;-72
2022/06/24 13:33:47;;;;;;;5.78;5.30;;;;;;;;;;5023795;28;20037;-71
2022/06/24 13:36:12;;;;;;;8.43;5.38;;;;;;;;;;5022084;28;20040;-72
2022/06/24 13:38:38;;;;;;;6.72;6.10;;;;;;;;;;5026110;28;20032;-72
2022/06/24 13:41:04;;;;;;;9.30;6.53;;;;;;;;;;5026691;28;20696;-72
2022/06/24 13:43:29;;;;;;;6.80;6.22;;;;;;;;;;5023402;28;20087;-72
2022/06/24 13:45:55;;;;;;;7.38;6.70;;;;;;;;;;5020234;28;20045;-72
2022/06/24 13:48:21;;;;;;;8.85;6.90;;;;;;;;;;5024917;28;20063;-72
2022/06/24 13:50:46;;;;;;;11.50;6.90;;;;;;;;;;5034786;22;20045;-77
2022/06/24 13:53:12;;;;;;;8.20;7.30;;;;;;;;;;5023609;28;20160;-78
2022/06/24 13:55:38;;;;;;;13.40;7.85;;;;;;;;;;5031182;28;20037;-80
2022/06/24 13:58:03;;;;;;;10.00;9.10;;;;;;;;;;5026983;28;20025;-80
2022/06/24 14:00:29;;;;;;;10.38;9.23;;;;;;;;;;5028036;28;20161;-79
2022/06/24 14:02:55;;;;;;;10.80;10.00;;;;;;;;;;5030210;28;20044;-80
2022/06/24 14:05:21;;;;;;;12.93;11.73;;;;;;;;;;5038859;28;20731;-79
2022/06/24 14:07:47;;;;;;;12.68;11.60;;;;;;;;;;5031780;28;20037;-78
2022/06/24 14:10:13;;;;;;;12.23;11.23;;;;;;;;;;5030093;28;20057;-81
2022/06/24 14:12:39;;;;;;;12.35;11.13;;;;;;;;;;5028783;28;20068;-82
2022/06/24 14:15:07;;;;;;;12.27;11.27;;;;;;;;;;5028877;28;20056;-80
2022/06/24 14:17:33;;;;;;;13.82;12.57;;;;;;;;;;5028835;28;20120;-79
2022/06/24 14:19:59;;;;;;;13.13;11.85;;;;;;;;;;5026403;28;20112;-80
2022/06/24 14:22:25;;;;;;;12.07;10.82;;;;;;;;;;5032389;28;20049;-80
2022/06/24 14:24:50;;;;;;;11.27;10.38;;;;;;;;;;5030128;28;20025;-80
2022/06/24 14:27:16;;;;;;;10.90;10.00;;;;;;;;;;5043405;28;20041;-81
2022/06/24 14:29:41;;;;;;;12.07;10.95;;;;;;;;;;5035644;28;20033;-80
2022/06/24 14:32:08;;;;;;;12.60;11.48;;;;;;;;;;5015219;28;20609;-81
2022/06/24 14:34:34;;;;;;;11.68;10.65;;;;;;;;;;5032682;28;20040;-78
2022/06/24 14:37:00;;;;;;;11.20;10.32;;;;;;;;;;5031221;28;20037;-79
2022/06/24 14:42:11;;;;;;;10.48;9.68;;;;;;;;;;5033772;28;20417;-80
2022/06/24 14:44:36;;;;;;;10.15;9.40;;;;;;;;;;5028569;28;20131;-81
2022/06/24 14:47:04;;;;;;;10.48;9.77;;;;;;;;;;5032496;28;20036;-81
2022/06/24 14:49:30;;;;;;;9.75;8.93;;;;;;;;;;5036448;28;21858;-82
2022/06/24 14:51:57;;;;;;;10.07;9.27;;;;;;;;;;5031121;28;20063;-82
2022/06/24 14:54:22;;;;;;;10.65;9.80;;;;;;;;;;5043190;28;20389;-81
2022/06/24 14:56:48;;;;;;;10.70;9.80;;;;;;;;;;5036447;28;20052;-81
2022/06/24 14:59:14;;;;;;;9.52;8.70;;;;;;;;;;5036061;28;20032;-80